Time;durP1;ratioP1;P1;durP2;ratioP2;P2;SDS_P1;SDS_P2;PMS_P1;PMS_P2;Temp;Humidity;BMP_temperature;BMP_pressure;BME280_temperature;BME280_humidity;BME280_pressure;Samples;Min_cycle;Max_cycle;Signal;HPM_P1;HPM_P2
2022/09/20 12:08:49;;;;;;;1.00;0.50;;;;;;;15.46;72.49;99458.08;99921;1342;544938;-32
2022/09/20 12:11:30;;;;;;;0.40;0.40;;;;;;;15.95;71.98;99459.30;100148;1348;48719;-33
2022/09/20 12:14:00;;;;;;;1.00;0.50;;;;;;;16.16;69.71;99460.50;100269;1341;22755;-34
2022/09/20 12:16:33;;;;;;;2.20;0.60;;;;;;;16.53;68.65;99461.75;100255;1346;24332;-36
2022/09/20 12:19:01;;;;;;;0.70;0.40;;;;;;;16.72;66.21;99460.14;100137;1348;23766;-38
2022/09/20 12:21:27;;;;;;;6.30;0.70;;;;;;;16.53;65.52;99459.02;100068;1345;346736;-36
2022/09/20 12:24:00;;;;;;;1.30;0.50;;;;;;;16.29;65.18;99459.73;100348;1335;22519;-33
2022/09/20 12:26:25;;;;;;;;;;;;;;;16.80;63.47;99461.98;100395;1345;24299;-37
2022/09/20 12:28:53;;;;;;;0.40;0.40;;;;;;;16.77;62.51;99460.86;100415;1340;22921;-37
2022/09/20 12:31:37;;;;;;;0.70;0.40;;;;;;;16.50;63.64;99456.42;100364;1345;22914;-34
2022/09/20 12:34:22;;;;;;;;;;;;;;;16.73;64.66;99454.92;100409;1340;22500;-34
2022/09/20 12:36:54;;;;;;;0.80;0.40;;;;;;;16.96;62.29;99453.98;100334;1340;22899;-37
2022/09/20 12:39:24;;;;;;;0.50;0.20;;;;;;;16.44;63.00;99452.46;100390;1344;24450;-36
2022/09/20 12:41:53;;;;;;;0.30;0.30;;;;;;;17.19;63.23;99451.52;100337;1344;25337;-37
2022/09/20 12:44:25;;;;;;;0.50;0.40;;;;;;;17.26;61.31;99454.20;100413;1345;24533;-34
2022/09/20 12:46:54;;;;;;;3.00;0.50;;;;;;;17.90;62.02;99450.05;100346;1345;22661;-37
2022/09/20 12:54:20;;;;;;;0.70;0.60;;;;;;;18.21;58.47;99452.95;100370;1345;23094;-37
2022/09/20 12:56:46;;;;;;;2.80;0.60;;;;;;;17.80;59.49;99458.27;100211;1345;22601;-34
2022/09/20 12:59:19;;;;;;;2.80;1.00;;;;;;;16.78;61.58;99465.02;100364;1337;24476;-33
2022/09/20 13:01:45;;;;;;;0.80;0.60;;;;;;;15.52;64.72;99465.88;100386;1345;22622;-36
2022/09/20 13:04:18;;;;;;;1.80;1.40;;;;;;;14.94;67.56;99464.09;100373;1345;22529;-33
2022/09/20 13:06:44;;;;;;;0.70;0.70;;;;;;;14.74;68.34;99467.05;100366;1345;23260;-36
2022/09/20 13:09:09;;;;;;;0.80;0.50;;;;;;;15.21;67.90;99463.61;100351;1345;22779;-33
2022/09/20 13:11:39;;;;;;;1.00;0.80;;;;;;;15.49;67.98;99460.71;100201;1345;22876;-36
2022/09/20 13:14:11;;;;;;;0.70;0.70;;;;;;;15.88;67.55;99457.20;100402;1345;22748;-34
2022/09/20 13:16:58;;;;;;;1.90;0.70;;;;;;;16.31;65.47;99455.40;100328;1345;22521;-33
2022/09/20 13:19:28;;;;;;;0.90;0.70;;;;;;;16.74;63.86;99460.70;100415;1345;24305;-37
2022/09/20 13:21:57;;;;;;;3.80;1.10;;;;;;;16.71;63.34;99467.41;100375;1331;22770;-34
2022/09/20 13:24:23;;;;;;;0.80;0.60;;;;;;;16.65;64.32;99466.64;100444;1345;22599;-34
2022/09/20 13:26:49;;;;;;;0.70;0.50;;;;;;;16.33;62.31;99470.87;100419;1340;22567;-37
2022/09/20 13:29:21;;;;;;;0.50;0.40;;;;;;;15.88;63.30;99467.98;100353;1343;24357;-37
2022/09/20 13:31:47;;;;;;;;;;;;;;;15.65;64.76;99468.41;100348;1345;22514;-37
2022/09/20 13:34:14;;;;;;;0.50;0.50;;;;;;;15.26;65.80;99468.27;100308;1339;23112;-37
2022/09/20 13:36:40;;;;;;;0.80;0.50;;;;;;;15.24;67.08;99465.45;100387;1345;24846;-37
2022/09/20 13:39:05;;;;;;;1.20;0.60;;;;;;;15.18;66.90;99468.39;100306;1345;22754;-37
2022/09/20 13:41:32;;;;;;;1.00;0.50;;;;;;;15.07;67.93;99464.88;100388;1337;22764;-37
2022/09/20 13:43:57;;;;;;;1.50;0.80;;;;;;;14.98;68.33;99467.73;100375;1337;23242;-36
2022/09/20 13:46:29;;;;;;;1.80;0.80;;;;;;;15.07;68.90;99466.23;100455;1343;22751;-33
2022/09/20 13:49:08;;;;;;;1.10;0.70;;;;;;;15.05;68.85;99465.78;100498;1345;22972;-33
2022/09/20 13:51:34;;;;;;;1.60;0.80;;;;;;;15.10;69.00;99469.94;100395;1345;22709;-38
2022/09/20 13:54:06;;;;;;;1.00;0.50;;;;;;;15.10;69.08;99473.55;100351;1345;23093;-37
2022/09/20 13:56:32;;;;;;;1.00;0.30;;;;;;;14.75;69.52;99473.02;100444;1337;25320;-35
2022/09/20 13:59:03;;;;;;;1.50;0.60;;;;;;;14.42;70.61;99472.73;100361;1345;22748;-35
2022/09/20 14:01:30;;;;;;;1.50;0.60;;;;;;;13.88;73.73;99472.74;100310;1343;22574;-32
2022/09/20 14:04:00;;;;;;;0.80;0.50;;;;;;;13.49;76.65;99472.30;100420;1345;22522;-32
2022/09/20 14:06:28;;;;;;;1.50;1.00;;;;;;;13.35;77.06;99472.98;100351;1343;23094;-35
2022/09/20 14:08:54;;;;;;;3.30;0.50;;;;;;;13.20;77.86;99474.67;100361;1345;23418;-33
2022/09/20 14:11:23;;;;;;;1.10;0.60;;;;;;;13.09;77.35;99474.89;100445;1337;22752;-35
2022/09/20 14:13:51;;;;;;;0.90;0.50;;;;;;;12.96;78.13;99478.66;100408;1345;24341;-34
2022/09/20 14:16:17;;;;;;;0.70;0.70;;;;;;;12.93;79.33;99474.63;100362;1345;22501;-34
2022/09/20 14:18:44;;;;;;;2.70;0.90;;;;;;;13.37;80.01;99471.67;100440;1337;22519;-33
2022/09/20 14:21:10;;;;;;;1.40;0.90;;;;;;;14.07;78.21;99467.72;100347;1343;22762;-32
2022/09/20 14:23:43;;;;;;;2.50;0.70;;;;;;;14.67;76.22;99469.64;100336;1344;22637;-32
2022/09/20 14:26:15;;;;;;;6.00;0.80;;;;;;;15.21;74.17;99466.10;100478;1340;23245;-35
2022/09/20 14:28:41;;;;;;;;;;;;;;;15.70;73.55;99463.46;100433;1345;26731;-32
2022/09/20 14:31:12;;;;;;;0.90;0.80;;;;;;;16.10;71.85;99462.66;100458;1345;23239;-34
2022/09/20 14:33:39;;;;;;;1.90;0.90;;;;;;;16.27;70.38;99460.34;100417;1343;22887;-37
2022/09/20 14:36:11;;;;;;;0.60;0.60;;;;;;;16.29;69.72;99459.52;100401;1337;22891;-37
2022/09/20 14:38:37;;;;;;;0.60;0.50;;;;;;;15.84;69.73;99463.15;100528;1337;25358;-37
2022/09/20 14:41:02;;;;;;;0.70;0.40;;;;;;;15.48;70.34;99465.27;100480;1343;23226;-34
2022/09/20 14:43:30;;;;;;;1.10;0.50;;;;;;;15.32;70.23;99466.86;100290;1343;23229;-34
2022/09/20 14:45:59;;;;;;;0.80;0.40;;;;;;;15.49;67.07;99464.29;100450;1337;23359;-37
2022/09/20 14:48:25;;;;;;;0.50;0.30;;;;;;;15.58;65.19;99466.54;100468;1337;24385;-37
2022/09/20 14:50:57;;;;;;;1.10;0.60;;;;;;;15.86;65.35;99463.34;100464;1343;22760;-34
2022/09/20 14:53:25;;;;;;;0.90;0.40;;;;;;;15.60;63.85;99468.70;100466;1345;22520;-34
2022/09/20 14:55:56;;;;;;;0.50;0.30;;;;;;;15.95;62.97;99472.14;100383;1343;23075;-34
2022/09/20 14:58:23;;;;;;;0.10;0.10;;;;;;;16.24;61.32;99468.55;100434;1337;24313;-37
2022/09/20 15:00:50;;;;;;;0.30;0.30;;;;;;;16.18;59.93;99468.94;100430;1345;22842;-37
2022/09/20 15:03:18;;;;;;;0.60;0.30;;;;;;;16.33;59.27;99468.99;100524;1344;22846;-34
2022/09/20 15:05:45;;;;;;;1.50;0.70;;;;;;;16.42;58.74;99475.68;100516;1340;23057;-37
2022/09/20 15:08:11;;;;;;;0.90;0.40;;;;;;;16.51;58.84;99474.38;100332;1345;24855;-34
2022/09/20 15:10:36;;;;;;;1.70;0.50;;;;;;;16.52;58.70;99470.88;100337;1330;24357;-34
2022/09/20 15:13:02;;;;;;;0.70;0.30;;;;;;;16.27;58.29;99476.71;100369;1343;22764;-37
2022/09/20 15:15:28;;;;;;;3.70;0.30;;;;;;;15.77;59.90;99478.52;100429;1340;23201;-37
2022/09/20 15:17:54;;;;;;;0.40;0.30;;;;;;;16.02;60.43;99477.64;100475;1336;23259;-37
2022/09/20 15:20:21;;;;;;;1.70;0.80;;;;;;;16.06;62.43;99480.57;100420;1337;22711;-37
2022/09/20 15:22:48;;;;;;;1.70;1.50;;;;;;;16.24;65.50;99484.13;100354;1343;22765;-34
2022/09/20 15:25:16;;;;;;;1.10;0.70;;;;;;;15.87;67.31;99487.77;100421;1345;23922;-34
2022/09/20 15:27:43;;;;;;;1.40;0.70;;;;;;;15.09;70.68;99493.17;100479;1337;22888;-37
2022/09/20 15:30:11;;;;;;;1.40;0.70;;;;;;;15.04;71.04;99491.17;100524;1344;22771;-37
2022/09/20 15:32:36;;;;;;;1.20;1.00;;;;;;;14.64;73.78;99489.34;100456;1339;22634;-33
2022/09/20 15:35:02;;;;;;;3.30;2.30;;;;;;;14.48;75.68;99491.19;100362;1344;25430;-33
2022/09/20 15:37:28;;;;;;;5.10;4.40;;;;;;;14.33;77.30;99493.98;100399;1337;22879;-36
2022/09/20 15:39:53;;;;;;;13.00;8.30;;;;;;;14.38;78.28;99497.00;100317;1338;22865;-32
2022/09/20 15:42:20;;;;;;;13.90;6.90;;;;;;;14.49;78.16;99497.05;100463;1345;22904;-33
2022/09/20 15:44:50;;;;;;;26.00;12.50;;;;;;;14.26;78.23;99501.23;100336;1343;23272;-36
2022/09/20 15:47:16;;;;;;;32.80;15.50;;;;;;;14.05;78.67;99502.60;100364;1336;24405;-32
2022/09/20 15:49:45;;;;;;;27.20;9.40;;;;;;;13.80;80.21;99509.42;100444;1345;22881;-36
2022/09/20 15:52:12;;;;;;;27.40;12.90;;;;;;;13.66;81.08;99510.86;100398;1338;24378;-36
2022/09/20 15:54:38;;;;;;;37.50;13.70;;;;;;;13.44;82.44;99515.63;100428;1343;24498;-36
2022/09/20 15:57:04;;;;;;;4.40;1.90;;;;;;;13.17;83.86;99519.55;100379;1345;24012;-32
2022/09/20 15:59:31;;;;;;;1.60;1.30;;;;;;;12.87;85.19;99519.98;100359;1344;24863;-33
2022/09/20 16:01:57;;;;;;;2.10;1.40;;;;;;;12.62;86.56;99521.75;100353;1343;22754;-33
2022/09/20 16:04:25;;;;;;;1.90;1.00;;;;;;;12.48;87.42;99524.19;100503;1340;23100;-33
2022/09/20 16:06:51;;;;;;;6.60;3.50;;;;;;;12.38;88.44;99528.95;100339;1339;22746;-33
2022/09/20 16:09:17;;;;;;;58.90;22.80;;;;;;;12.26;89.55;99529.91;100413;1343;22742;-33
2022/09/20 16:11:42;;;;;;;42.20;20.80;;;;;;;12.22;90.05;99530.77;100382;1343;23117;-36
2022/09/20 16:14:08;;;;;;;16.70;8.50;;;;;;;12.07;91.29;99529.71;100366;1345;24444;-33
2022/09/20 16:16:33;;;;;;;14.30;6.70;;;;;;;12.08;92.20;99532.94;100438;1337;22510;-36
2022/09/20 16:21:28;;;;;;;14.50;3.30;;;;;;;12.11;92.47;99542.98;100422;1343;23139;-32
2022/09/20 16:23:55;;;;;;;4.80;2.60;;;;;;;12.09;92.44;99542.14;100515;1343;22890;-36
2022/09/20 16:26:22;;;;;;;5.30;3.10;;;;;;;12.01;92.40;99547.83;100366;1335;24415;-32
2022/09/20 16:28:48;;;;;;;3.50;2.00;;;;;;;11.89;92.77;99544.63;100432;1337;22730;-36
2022/09/20 16:37:35;;;;;;;27.50;10.20;;;;;;;11.15;95.01;99560.10;100164;1345;545432;-34
2022/09/20 16:40:01;;;;;;;20.80;9.60;;;;;;;10.89;95.90;99562.27;100342;1337;24772;-37
2022/09/20 16:42:27;;;;;;;17.30;10.40;;;;;;;10.82;96.21;99562.66;100328;1345;23040;-33
2022/09/20 16:44:52;;;;;;;12.30;8.00;;;;;;;10.58;97.42;99569.98;100391;1345;22896;-33
2022/09/20 16:47:21;;;;;;;23.80;9.70;;;;;;;10.42;98.24;99572.02;100349;1337;22983;-37
2022/09/20 16:49:49;;;;;;;24.80;11.50;;;;;;;10.28;99.47;99572.95;100420;1345;22876;-33
2022/09/20 16:52:15;;;;;;;6.00;2.90;;;;;;;10.14;99.99;99576.14;100338;1337;273332;-33
2022/09/20 16:54:40;;;;;;;8.80;5.20;;;;;;;10.00;100.00;99586.09;100482;1328;22744;-35
2022/09/20 16:57:06;;;;;;;13.80;4.30;;;;;;;9.86;100.00;99585.15;100575;1342;23195;-37
2022/09/20 16:59:32;;;;;;;17.70;8.10;;;;;;;9.77;100.00;99587.80;100511;1342;24483;-33
2022/09/20 17:01:58;;;;;;;18.30;5.80;;;;;;;9.69;100.00;99590.65;100501;1337;24419;-33
2022/09/20 17:04:23;;;;;;;18.60;6.90;;;;;;;9.59;100.00;99597.58;100487;1340;22725;-35
2022/09/20 17:06:50;;;;;;;7.40;5.60;;;;;;;9.55;100.00;99604.16;100496;1318;22987;-31
2022/09/20 17:09:15;;;;;;;4.10;3.10;;;;;;;9.45;100.00;99606.61;100461;1342;24297;-34
2022/09/20 17:11:44;;;;;;;7.20;6.10;;;;;;;9.35;100.00;99604.04;100509;1342;22894;-34
2022/09/20 17:14:10;;;;;;;9.40;4.30;;;;;;;9.25;100.00;99607.12;100523;1342;25400;-34
2022/09/20 17:16:37;;;;;;;32.20;14.60;;;;;;;9.17;100.00;99610.59;100495;1334;24408;-32
2022/09/20 17:19:06;;;;;;;33.30;13.30;;;;;;;9.09;100.00;99608.31;100521;1334;23103;-32
2022/09/20 17:21:32;;;;;;;68.90;29.00;;;;;;;9.05;100.00;99612.52;100537;1342;24295;-35
2022/09/20 17:23:58;;;;;;;60.50;27.90;;;;;;;9.00;100.00;99615.53;100497;1342;23273;-32
2022/09/20 17:26:25;;;;;;;33.40;16.20;;;;;;;8.93;100.00;99621.65;100510;1340;23204;-33
2022/09/20 17:28:56;;;;;;;38.90;21.00;;;;;;;8.92;100.00;99621.83;100431;1342;22518;-36
2022/09/20 17:31:27;;;;;;;35.90;17.00;;;;;;;8.83;100.00;99628.66;100520;1334;22894;-36
2022/09/20 17:33:53;;;;;;;9.90;7.10;;;;;;;8.77;100.00;99634.06;100459;1342;22526;-35
2022/09/20 17:36:20;;;;;;;11.40;7.80;;;;;;;8.69;100.00;99640.32;100512;1335;22885;-32
2022/09/20 17:38:47;;;;;;;5.50;4.80;;;;;;;8.64;100.00;99641.32;100539;1335;25231;-36
2022/09/20 17:41:14;;;;;;;4.20;3.60;;;;;;;8.56;100.00;99646.86;100492;1342;22722;-35
2022/09/20 17:43:41;;;;;;;4.60;3.60;;;;;;;8.50;100.00;99653.30;100548;1341;22713;-32
2022/09/20 17:46:11;;;;;;;56.20;26.50;;;;;;;8.43;100.00;99652.29;100582;1333;22623;-35
2022/09/20 17:48:41;;;;;;;110.80;73.50;;;;;;;8.37;100.00;99659.73;100560;1320;22758;-35
2022/09/20 17:51:09;;;;;;;54.50;40.20;;;;;;;8.32;100.00;99664.60;100474;1334;22851;-37
2022/09/20 17:53:35;;;;;;;66.30;26.00;;;;;;;8.28;100.00;99664.63;100537;1342;22764;-35
2022/09/20 17:56:01;;;;;;;138.50;42.90;;;;;;;8.25;100.00;99670.97;100551;1341;22745;-32
2022/09/20 17:58:27;;;;;;;74.60;20.80;;;;;;;8.22;100.00;99669.80;100601;1326;22722;-35
2022/09/20 18:00:55;;;;;;;23.10;8.00;;;;;;;8.22;100.00;99671.41;100556;1334;25314;-35
2022/09/20 18:03:22;;;;;;;152.60;38.30;;;;;;;8.17;100.00;99673.80;100509;1327;23054;-35
2022/09/20 18:05:48;;;;;;;71.20;21.30;;;;;;;8.10;100.00;99677.98;100609;1340;23038;-37
2022/09/20 18:08:15;;;;;;;54.80;18.50;;;;;;;8.11;100.00;99684.14;100494;1341;22894;-33
2022/09/20 18:10:41;;;;;;;106.50;32.70;;;;;;;8.09;100.00;99688.33;100544;1341;24311;-33
2022/09/20 18:13:06;;;;;;;111.70;33.80;;;;;;;8.12;100.00;99695.04;100570;1341;24877;-32
2022/09/20 18:15:33;;;;;;;63.50;20.60;;;;;;;8.13;100.00;99693.36;100643;1341;23224;-33
2022/09/20 18:17:59;;;;;;;56.70;20.70;;;;;;;8.21;100.00;99696.04;100526;1342;22565;-36
2022/09/20 18:20:26;;;;;;;42.20;16.00;;;;;;;8.27;100.00;99700.35;100586;1335;24561;-35
2022/09/20 18:22:51;;;;;;;5.80;3.50;;;;;;;8.29;100.00;99707.89;100561;1342;22760;-33
2022/09/20 18:25:17;;;;;;;5.90;3.90;;;;;;;8.32;100.00;99708.86;100636;1325;22874;-32
2022/09/20 18:27:42;;;;;;;13.40;5.70;;;;;;;8.35;100.00;99710.83;100564;1340;23230;-32
2022/09/20 18:30:09;;;;;;;9.80;3.30;;;;;;;8.40;100.00;99711.48;100477;1334;22722;-33
2022/09/20 18:32:34;;;;;;;5.10;3.90;;;;;;;8.49;100.00;99712.89;100643;1342;24305;-34
2022/09/20 18:35:00;;;;;;;6.00;3.50;;;;;;;8.52;100.00;99709.59;100656;1335;22760;-33
2022/09/20 18:37:27;;;;;;;8.90;2.00;;;;;;;8.55;100.00;99714.80;100667;1337;24309;-36
2022/09/20 18:39:52;;;;;;;5.90;4.30;;;;;;;8.63;100.00;99715.52;100624;1342;23111;-32
2022/09/20 18:42:17;;;;;;;14.10;6.30;;;;;;;8.69;100.00;99718.20;100617;1341;24428;-32
2022/09/20 18:44:44;;;;;;;9.80;3.90;;;;;;;8.74;100.00;99719.20;100634;1334;24395;-32
2022/09/20 18:47:09;;;;;;;7.90;5.30;;;;;;;8.78;100.00;99720.35;100648;1335;22768;-36
2022/09/20 18:49:35;;;;;;;6.70;3.10;;;;;;;8.80;100.00;99719.60;100560;1342;24364;-33
2022/09/20 18:52:01;;;;;;;5.90;4.30;;;;;;;8.85;100.00;99717.70;100651;1335;23211;-36
2022/09/20 18:54:32;;;;;;;7.50;4.90;;;;;;;8.89;100.00;99717.50;100725;1342;23921;-38
2022/09/20 18:56:58;;;;;;;14.90;5.40;;;;;;;8.91;100.00;99713.03;100531;1342;23216;-33
2022/09/20 18:59:25;;;;;;;4.20;3.70;;;;;;;8.94;100.00;99709.98;100647;1334;22829;-36
2022/09/20 19:01:52;;;;;;;5.80;3.40;;;;;;;8.91;100.00;99712.23;100668;1341;24379;-36
2022/09/20 19:04:22;;;;;;;;;;;;;;;8.93;100.00;99712.72;100645;1342;23239;-36
2022/09/20 19:06:55;;;;;;;10.90;4.80;;;;;;;8.90;100.00;99712.17;100655;1340;23090;-36
2022/09/20 19:09:25;;;;;;;9.60;5.40;;;;;;;8.89;100.00;99712.11;100698;1334;24288;-35
2022/09/20 19:11:57;;;;;;;11.70;7.20;;;;;;;8.88;100.00;99719.05;100678;1327;23053;-35
2022/09/20 19:14:28;;;;;;;12.00;6.30;;;;;;;8.81;100.00;99722.55;100700;1335;25286;-32
2022/09/20 19:16:59;;;;;;;16.00;5.90;;;;;;;8.82;100.00;99724.48;100677;1341;22514;-36
2022/09/20 19:19:32;;;;;;;5.60;3.30;;;;;;;8.86;100.00;99727.67;100690;1342;22744;-35
2022/09/20 19:22:07;;;;;;;6.80;4.10;;;;;;;8.94;100.00;99721.14;100657;1341;23086;-33
2022/09/20 19:24:40;;;;;;;3.80;2.90;;;;;;;8.90;100.00;99719.66;100669;1342;25336;-36
2022/09/20 19:27:09;;;;;;;11.20;1.70;;;;;;;8.89;100.00;99728.05;100687;1342;25738;-32
2022/09/20 19:29:36;;;;;;;4.10;1.60;;;;;;;8.95;100.00;99718.40;100673;1334;24487;-35
2022/09/20 19:32:02;;;;;;;5.40;2.50;;;;;;;8.91;100.00;99721.88;100599;1342;24476;-35
2022/09/20 19:34:29;;;;;;;4.90;2.50;;;;;;;8.85;100.00;99730.61;100710;1342;23274;-36
2022/09/20 19:37:00;;;;;;;5.70;4.00;;;;;;;8.87;100.00;99733.13;100689;1340;22505;-33
2022/09/20 19:39:33;;;;;;;4.40;1.70;;;;;;;8.80;100.00;99733.33;100449;1327;24872;-36
2022/09/20 19:42:06;;;;;;;5.20;3.90;;;;;;;8.73;100.00;99737.42;100709;1337;22527;-35
2022/09/20 19:44:53;;;;;;;6.60;3.90;;;;;;;8.66;100.00;99741.75;100672;1342;22599;-36
2022/09/20 19:47:23;;;;;;;7.30;4.20;;;;;;;8.66;100.00;99744.45;100687;1334;23227;-32
2022/09/20 19:49:54;;;;;;;7.20;4.60;;;;;;;8.60;100.00;99745.50;100641;1334;23053;-33
2022/09/20 19:52:21;;;;;;;8.80;4.50;;;;;;;8.55;100.00;99743.71;100639;1341;23465;-36
2022/09/20 19:54:48;;;;;;;6.80;3.20;;;;;;;8.58;100.00;99749.66;100670;1337;24484;-36
2022/09/20 19:57:18;;;;;;;4.10;3.00;;;;;;;8.58;100.00;99749.13;100663;1341;23226;-33
2022/09/20 19:59:44;;;;;;;4.60;2.30;;;;;;;8.61;100.00;99750.48;100720;1341;22514;-36
2022/09/20 20:02:10;;;;;;;9.10;4.00;;;;;;;8.60;100.00;99752.45;100528;1328;22459;-36
2022/09/20 20:04:36;;;;;;;4.20;3.70;;;;;;;8.58;100.00;99752.80;100693;1342;25807;-33
2022/09/20 20:07:04;;;;;;;3.30;2.20;;;;;;;8.56;100.00;99760.21;100666;1340;22739;-33
2022/09/20 20:09:38;;;;;;;5.00;3.80;;;;;;;8.61;100.00;99758.70;100670;1325;22891;-33
2022/09/20 20:12:07;;;;;;;6.70;3.60;;;;;;;8.58;100.00;99764.63;100657;1341;22748;-32
2022/09/20 20:14:38;;;;;;;4.00;3.30;;;;;;;8.60;100.00;99763.27;100651;1324;23216;-36
2022/09/20 20:17:10;;;;;;;6.80;2.00;;;;;;;8.59;100.00;99769.45;100535;1342;24378;-36
2022/09/20 20:19:57;;;;;;;5.00;3.90;;;;;;;8.62;100.00;99770.95;100667;1342;24282;-36
2022/09/20 20:22:30;;;;;;;8.20;3.60;;;;;;;8.66;100.00;99772.60;100680;1341;22890;-33
2022/09/20 20:24:56;;;;;;;5.40;3.70;;;;;;;8.67;100.00;99768.78;100736;1341;25230;-36
2022/09/20 20:27:22;;;;;;;5.80;3.80;;;;;;;8.63;100.00;99771.30;100692;1333;23223;-36
2022/09/20 20:29:48;;;;;;;3.40;1.50;;;;;;;8.63;100.00;99771.02;100735;1341;22760;-33
2022/09/20 20:32:14;;;;;;;6.00;2.70;;;;;;;8.65;100.00;99770.30;100707;1334;22712;-33
2022/09/20 20:34:40;;;;;;;4.00;1.80;;;;;;;8.64;100.00;99774.33;100671;1339;22506;-31
2022/09/20 20:37:06;;;;;;;11.80;2.20;;;;;;;8.61;100.00;99774.64;100628;1341;23112;-31
2022/09/20 20:39:31;;;;;;;2.80;1.70;;;;;;;8.67;100.00;99774.55;100651;1341;24379;-32
2022/09/20 20:42:00;;;;;;;4.30;1.80;;;;;;;8.65;100.00;99776.09;100537;1331;23309;-34
2022/09/20 20:44:27;;;;;;;3.00;2.10;;;;;;;8.62;100.00;99778.24;100688;1342;25552;-35
2022/09/20 20:46:52;;;;;;;1.70;1.40;;;;;;;8.65;100.00;99780.40;100631;1341;24438;-31
2022/09/20 20:49:19;;;;;;;3.30;2.40;;;;;;;8.65;100.00;99778.42;100536;1340;23113;-31
2022/09/20 20:51:44;;;;;;;2.70;1.80;;;;;;;8.62;100.00;99779.65;100462;1342;24493;-35
2022/09/20 20:54:10;;;;;;;2.60;1.80;;;;;;;8.61;100.00;99785.85;100698;1341;24234;-35
2022/09/20 20:56:36;;;;;;;8.40;1.80;;;;;;;8.67;100.00;99781.04;100650;1342;23222;-32
2022/09/20 20:59:02;;;;;;;4.40;1.80;;;;;;;8.69;100.00;99782.09;100649;1335;23005;-31
2022/09/20 21:01:28;;;;;;;3.10;1.60;;;;;;;8.68;100.00;99780.30;100640;1333;22460;-34
2022/09/20 21:03:54;;;;;;;4.90;3.00;;;;;;;8.66;100.00;99781.55;100704;1341;23094;-35
2022/09/20 21:06:23;;;;;;;5.50;3.30;;;;;;;8.61;100.00;99783.90;100651;1342;24485;-31
2022/09/20 21:08:49;;;;;;;9.00;2.50;;;;;;;8.61;100.00;99785.36;100681;1342;26516;-37
2022/09/20 21:11:17;;;;;;;4.40;2.80;;;;;;;8.51;100.00;99790.20;100713;1342;22511;-31
2022/09/20 21:13:43;;;;;;;5.10;2.80;;;;;;;8.47;100.00;99789.29;100614;1318;22780;-37
2022/09/20 21:16:12;;;;;;;3.40;1.90;;;;;;;8.47;100.00;99791.59;100606;1340;22738;-32
2022/09/20 21:18:39;;;;;;;3.20;2.20;;;;;;;8.37;100.00;99790.81;100646;1334;24378;-31
2022/09/20 21:21:12;;;;;;;2.80;2.30;;;;;;;8.33;100.00;99793.10;100518;1342;24379;-32
2022/09/20 21:23:37;;;;;;;11.60;2.10;;;;;;;8.29;100.00;99796.83;100649;1341;22488;-35
2022/09/20 21:26:07;;;;;;;2.50;1.80;;;;;;;8.26;100.00;99798.49;100629;1342;24305;-33
2022/09/20 21:28:35;;;;;;;2.90;2.10;;;;;;;8.29;100.00;99802.13;100665;1341;25556;-36
2022/09/20 21:31:01;;;;;;;7.10;2.70;;;;;;;8.26;100.00;99798.20;100690;1334;23091;-36
2022/09/20 21:33:30;;;;;;;3.20;2.00;;;;;;;8.19;100.00;99801.96;100461;1340;23090;-32
2022/09/20 21:35:59;;;;;;;3.30;1.70;;;;;;;8.15;100.00;99802.23;100646;1340;24283;-32
2022/09/20 21:38:27;;;;;;;1.80;1.00;;;;;;;8.11;100.00;99806.26;100549;1335;24299;-36
2022/09/20 21:41:01;;;;;;;3.00;1.80;;;;;;;8.07;100.00;99805.88;100651;1342;22592;-31
2022/09/20 21:43:27;;;;;;;4.20;2.00;;;;;;;8.05;100.00;99812.13;100669;1335;22833;-35
2022/09/20 21:45:54;;;;;;;3.80;2.40;;;;;;;7.98;100.00;99811.53;100627;1334;22887;-35
2022/09/20 21:48:20;;;;;;;4.20;2.20;;;;;;;7.93;100.00;99816.75;100626;1340;24376;-35
2022/09/20 21:50:45;;;;;;;2.00;1.70;;;;;;;7.95;100.00;99816.61;100524;1342;22738;-38
2022/09/20 21:53:11;;;;;;;1.60;1.30;;;;;;;7.92;100.00;99819.64;100629;1340;24619;-36
2022/09/20 21:55:36;;;;;;;2.40;1.30;;;;;;;7.93;100.00;99820.20;100647;1342;23107;-36
2022/09/20 21:58:02;;;;;;;3.20;2.10;;;;;;;7.92;100.00;99820.16;100653;1334;24356;-36
2022/09/20 22:00:27;;;;;;;4.60;1.90;;;;;;;7.85;100.00;99823.02;100647;1341;24379;-36
2022/09/20 22:02:57;;;;;;;1.40;0.90;;;;;;;7.83;100.00;99819.71;100642;1334;22994;-32
2022/09/20 22:05:25;;;;;;;1.20;0.70;;;;;;;7.82;100.00;99816.27;100630;1334;24290;-36
2022/09/20 22:07:54;;;;;;;1.40;1.10;;;;;;;7.76;100.00;99820.92;100700;1334;24402;-33
2022/09/20 22:10:22;;;;;;;2.60;1.50;;;;;;;7.77;100.00;99817.94;100706;1342;22624;-36
2022/09/20 22:12:48;;;;;;;3.30;1.00;;;;;;;7.72;100.00;99819.89;100623;1333;23192;-32
2022/09/20 22:15:15;;;;;;;2.20;1.10;;;;;;;7.61;100.00;99823.16;100625;1341;22744;-36
2022/09/20 22:17:42;;;;;;;6.10;2.30;;;;;;;7.57;100.00;99832.01;100653;1334;24526;-32
2022/09/20 22:20:08;;;;;;;9.20;1.60;;;;;;;7.51;100.00;99829.81;100642;1342;24040;-32
2022/09/20 22:22:35;;;;;;;2.90;1.30;;;;;;;7.49;100.00;99835.39;100525;1340;22647;-32
2022/09/20 22:25:00;;;;;;;3.60;1.10;;;;;;;7.41;100.00;99835.70;100647;1339;24474;-35
2022/09/20 22:27:26;;;;;;;3.70;1.70;;;;;;;7.39;100.00;99838.04;100668;1335;22511;-35
2022/09/20 22:29:52;;;;;;;2.00;1.40;;;;;;;7.31;100.00;99836.77;100592;1334;24330;-32
2022/09/20 22:32:18;;;;;;;0.60;0.50;;;;;;;7.27;100.00;99839.83;100620;1341;23087;-35
2022/09/20 22:34:43;;;;;;;2.00;1.50;;;;;;;7.24;100.00;99840.86;100664;1342;22748;-32
2022/09/20 22:37:09;;;;;;;3.10;2.00;;;;;;;7.17;100.00;99842.34;100627;1340;23239;-35
2022/09/20 22:39:35;;;;;;;1.50;1.00;;;;;;;7.11;100.00;99845.01;100707;1318;22505;-35
2022/09/20 22:42:01;;;;;;;2.30;1.50;;;;;;;7.10;100.00;99849.95;100673;1340;22712;-32
2022/09/20 22:44:26;;;;;;;1.30;0.60;;;;;;;7.07;100.00;99851.58;100625;1326;23115;-32
2022/09/20 22:46:52;;;;;;;5.60;2.10;;;;;;;7.09;100.00;99849.10;100487;1342;25651;-35
2022/09/20 22:49:19;;;;;;;3.00;1.80;;;;;;;7.06;100.00;99847.86;100635;1341;22543;-35
2022/09/20 22:51:44;;;;;;;2.20;1.20;;;;;;;7.05;100.00;99849.36;100670;1342;22770;-32
2022/09/20 22:54:10;;;;;;;2.70;2.10;;;;;;;7.04;100.00;99853.06;100667;1340;22745;-32
2022/09/20 22:56:37;;;;;;;2.70;1.40;;;;;;;7.06;100.00;99856.94;100698;1342;23140;-32
2022/09/20 22:59:06;;;;;;;3.50;2.00;;;;;;;6.98;100.00;99860.05;100701;1340;24295;-37
2022/09/20 23:01:33;;;;;;;2.00;1.10;;;;;;;6.97;100.00;99860.62;100639;1340;22845;-35
2022/09/20 23:04:01;;;;;;;5.50;2.30;;;;;;;6.93;100.00;99864.31;100669;1342;23311;-32
2022/09/20 23:06:30;;;;;;;2.20;1.40;;;;;;;6.90;100.00;99861.80;100678;1331;22600;-32
2022/09/20 23:08:58;;;;;;;3.20;1.70;;;;;;;6.86;100.00;99862.69;100713;1334;22819;-33
2022/09/20 23:11:24;;;;;;;6.30;2.90;;;;;;;6.82;100.00;99860.11;100686;1327;23247;-37
2022/09/20 23:13:54;;;;;;;4.00;3.00;;;;;;;6.73;100.00;99866.54;100708;1340;24282;-34
2022/09/20 23:16:21;;;;;;;1.90;0.90;;;;;;;6.67;100.00;99868.88;100627;1334;22512;-35
2022/09/20 23:18:48;;;;;;;1.90;1.40;;;;;;;6.65;100.00;99874.77;100683;1334;24305;-36
2022/09/20 23:21:14;;;;;;;2.70;1.60;;;;;;;6.62;100.00;99876.33;100664;1341;23192;-33
2022/09/20 23:23:42;;;;;;;5.70;2.80;;;;;;;6.60;100.00;99878.14;100669;1335;23119;-33
2022/09/20 23:26:09;;;;;;;3.90;2.20;;;;;;;6.60;100.00;99880.63;100636;1341;23212;-36
2022/09/20 23:28:36;;;;;;;3.20;1.70;;;;;;;6.54;100.00;99886.33;100560;1342;22633;-33
2022/09/20 23:31:05;;;;;;;1.70;1.10;;;;;;;6.50;100.00;99885.84;100690;1342;24325;-36
2022/09/20 23:33:31;;;;;;;4.00;1.80;;;;;;;6.48;100.00;99887.73;100647;1341;22550;-36
2022/09/20 23:35:56;;;;;;;4.10;1.50;;;;;;;6.46;100.00;99893.24;100650;1334;22560;-36
2022/09/20 23:38:23;;;;;;;2.80;1.70;;;;;;;6.43;100.00;99896.20;100620;1342;24417;-34
2022/09/20 23:40:49;;;;;;;2.50;1.70;;;;;;;6.43;100.00;99899.59;100715;1341;22600;-36
2022/09/20 23:43:15;;;;;;;3.60;2.00;;;;;;;6.40;100.00;99899.42;100685;1340;23109;-33
2022/09/20 23:45:41;;;;;;;5.80;2.80;;;;;;;6.39;100.00;99899.45;100719;1340;22884;-33
2022/09/20 23:48:06;;;;;;;1.90;1.20;;;;;;;6.33;100.00;99902.21;100667;1341;23027;-36